Time;durP1;ratioP1;P1;durP2;ratioP2;P2;SDS_P1;SDS_P2;PMS_P1;PMS_P2;Temp;Humidity;BMP_temperature;BMP_pressure;BME280_temperature;BME280_humidity;BME280_pressure;Samples;Min_cycle;Max_cycle;Signal;HPM_P1;HPM_P2
2022/03/03 00:00:47;;;;;;;20.00;10.77;;;;;;;2.95;52.93;97444.13;4907603;28;20169;-84
2022/03/03 00:03:13;;;;;;;23.00;11.25;;;;;;;2.90;52.95;97438.75;4893178;28;20197;-84
2022/03/03 00:05:38;;;;;;;20.15;10.85;;;;;;;2.87;52.27;97433.97;4924918;28;20802;-84
2022/03/03 00:08:04;;;;;;;19.73;10.00;;;;;;;2.90;51.73;97446.44;4915352;28;20205;-84
2022/03/03 00:10:29;;;;;;;19.13;10.15;;;;;;;2.85;51.90;97443.66;4923922;28;20263;-84
2022/03/03 00:12:55;;;;;;;17.33;9.30;;;;;;;2.88;52.13;97439.91;4906400;28;20210;-84
2022/03/03 00:15:20;;;;;;;19.17;9.10;;;;;;;2.90;51.62;97428.44;4914068;28;20272;-84
2022/03/03 00:17:45;;;;;;;17.17;9.57;;;;;;;2.93;52.23;97440.13;4903884;28;20178;-84
2022/03/03 00:20:11;;;;;;;18.52;9.57;;;;;;;2.86;52.10;97431.56;4906463;28;20230;-84
2022/03/03 00:22:37;;;;;;;16.60;9.55;;;;;;;2.90;52.01;97431.03;4928335;28;20651;-83
2022/03/03 00:25:02;;;;;;;15.50;8.55;;;;;;;2.86;51.64;97422.06;4899144;28;20193;-83
2022/03/03 00:27:28;;;;;;;20.77;11.35;;;;;;;2.87;52.00;97425.47;4915122;28;20185;-83
2022/03/03 00:29:53;;;;;;;22.33;10.43;;;;;;;2.88;52.29;97433.00;4914896;28;20208;-83
2022/03/03 00:32:18;;;;;;;17.63;9.68;;;;;;;2.85;52.36;97435.16;4911036;28;20193;-83
2022/03/03 00:34:44;;;;;;;18.27;9.90;;;;;;;2.87;52.91;97435.75;4911738;28;20115;-83
2022/03/03 00:37:09;;;;;;;21.13;11.02;;;;;;;2.83;52.34;97437.91;4914311;28;20174;-83
2022/03/03 00:39:35;;;;;;;19.02;10.57;;;;;;;2.74;53.09;97426.97;4921690;28;20673;-83
2022/03/03 00:42:00;;;;;;;20.73;10.68;;;;;;;2.77;52.85;97436.84;4891977;28;20297;-83
2022/03/03 00:44:25;;;;;;;25.13;12.02;;;;;;;2.71;52.82;97437.63;4911179;28;20580;-83
2022/03/03 00:46:51;;;;;;;24.85;12.43;;;;;;;2.64;52.92;97431.66;4929730;28;20331;-83
2022/03/03 00:49:16;;;;;;;30.00;13.38;;;;;;;2.69;53.20;97439.59;4902868;28;20284;-83
2022/03/03 00:51:41;;;;;;;21.90;10.90;;;;;;;2.68;53.45;97440.56;4930839;28;20209;-83
2022/03/03 00:54:07;;;;;;;21.45;10.43;;;;;;;2.68;53.83;97444.94;4909232;28;20622;-83
2022/03/03 00:56:33;;;;;;;13.50;8.02;;;;;;;2.66;53.08;97444.28;4908139;28;20141;-82
2022/03/03 00:58:58;;;;;;;15.40;8.65;;;;;;;2.68;53.22;97444.94;4892818;28;20585;-83
2022/03/03 01:01:24;;;;;;;16.00;7.05;;;;;;;2.67;53.34;97438.97;4893618;28;20172;-83
2022/03/03 01:03:49;;;;;;;19.40;9.90;;;;;;;2.68;53.29;97438.00;4926462;28;20213;-82
2022/03/03 01:06:14;;;;;;;19.13;9.82;;;;;;;2.68;52.59;97432.84;4914619;28;20218;-82
2022/03/03 01:08:40;;;;;;;23.83;10.40;;;;;;;2.64;52.47;97421.38;4930512;28;20144;-82
2022/03/03 01:11:06;;;;;;;23.60;12.25;;;;;;;2.62;52.27;97423.31;4899621;28;20362;-82
2022/03/03 01:13:32;;;;;;;21.13;10.75;;;;;;;2.67;52.83;97431.25;4913837;28;20189;-82
2022/03/03 01:15:58;;;;;;;21.73;10.73;;;;;;;2.69;51.88;97428.50;4930744;28;20225;-82
2022/03/03 01:18:23;;;;;;;18.35;9.40;;;;;;;2.67;52.49;97426.13;4899682;28;20283;-82
2022/03/03 01:20:49;;;;;;;15.98;9.05;;;;;;;2.66;53.01;97421.97;4896787;28;20795;-82
2022/03/03 01:23:15;;;;;;;17.13;8.52;;;;;;;2.61;53.60;97422.53;4932427;28;20208;-82
2022/03/03 01:25:40;;;;;;;15.82;8.43;;;;;;;2.60;52.81;97431.22;4923916;28;20668;-82
2022/03/03 01:28:05;;;;;;;19.58;10.82;;;;;;;2.40;53.17;97427.72;4930132;28;20189;-82
2022/03/03 01:30:31;;;;;;;24.02;12.00;;;;;;;2.22;53.99;97423.78;4918480;28;20173;-82
2022/03/03 01:32:56;;;;;;;23.13;11.85;;;;;;;2.23;54.05;97427.19;4916212;28;20533;-82
2022/03/03 01:35:22;;;;;;;24.35;10.75;;;;;;;2.28;53.83;97424.84;4919386;28;20217;-82
2022/03/03 01:37:47;;;;;;;21.83;10.65;;;;;;;2.35;53.67;97417.97;4919665;28;20213;-82
2022/03/03 01:40:13;;;;;;;22.98;11.93;;;;;;;2.27;53.75;97410.41;4928949;28;20220;-82
2022/03/03 01:42:38;;;;;;;28.50;12.80;;;;;;;2.29;53.46;97408.44;4935700;28;20516;-82
2022/03/03 01:45:04;;;;;;;30.65;14.07;;;;;;;2.29;53.82;97413.56;4934041;28;20235;-82
2022/03/03 01:47:30;;;;;;;26.33;13.25;;;;;;;2.35;53.94;97406.91;4926550;28;20188;-82
2022/03/03 01:49:56;;;;;;;24.63;11.75;;;;;;;2.37;53.76;97408.31;4931962;28;20655;-82
2022/03/03 01:52:22;;;;;;;19.83;9.93;;;;;;;2.39;53.51;97403.78;4902143;28;20221;-82
2022/03/03 01:54:48;;;;;;;17.05;9.07;;;;;;;2.34;53.83;97403.53;4925256;28;20178;-82
2022/03/03 01:57:17;;;;;;;20.17;10.18;;;;;;;2.28;54.46;97417.13;4906248;28;20287;-82
2022/03/03 01:59:43;;;;;;;25.35;11.18;;;;;;;2.41;54.38;97404.38;4915463;28;20710;-81
2022/03/03 02:02:10;;;;;;;23.33;10.77;;;;;;;2.40;54.03;97407.94;4901909;28;20330;-81
2022/03/03 02:04:36;;;;;;;19.17;9.65;;;;;;;2.41;54.03;97406.94;4929874;28;20208;-81
2022/03/03 02:07:02;;;;;;;20.20;9.88;;;;;;;2.35;53.65;97399.22;4927163;28;20159;-80
2022/03/03 02:09:27;;;;;;;23.60;11.32;;;;;;;2.43;53.96;97399.88;4925231;28;20204;-81
2022/03/03 02:11:53;;;;;;;21.17;10.00;;;;;;;2.46;54.08;97395.34;4924700;28;20288;-80
2022/03/03 02:14:18;;;;;;;31.65;13.20;;;;;;;2.47;53.84;97400.28;4932832;28;20244;-81
2022/03/03 02:16:44;;;;;;;29.02;13.18;;;;;;;2.46;53.48;97382.47;4917826;28;20219;-80
2022/03/03 02:19:17;;;;;;;27.20;11.65;;;;;;;2.49;53.45;97392.38;4898162;28;20296;-81
2022/03/03 02:21:46;;;;;;;38.00;15.23;;;;;;;2.56;53.55;97373.44;4908223;28;20264;-81
2022/03/03 02:24:11;;;;;;;53.63;20.38;;;;;;;2.71;53.52;97375.09;4898082;28;20772;-81
2022/03/03 02:26:39;;;;;;;26.08;12.35;;;;;;;2.81;53.05;97378.94;4915236;28;20279;-80
2022/03/03 02:29:05;;;;;;;19.90;10.73;;;;;;;2.87;52.41;97376.59;4930736;28;20185;-81
2022/03/03 02:31:30;;;;;;;21.77;10.27;;;;;;;2.93;52.30;97371.50;4914473;28;20189;-81
2022/03/03 02:33:57;;;;;;;18.48;9.23;;;;;;;2.96;52.52;97370.31;4914413;28;20198;-80
2022/03/03 02:36:27;;;;;;;16.42;8.30;;;;;;;2.99;52.09;97357.06;4914587;28;20698;-80
2022/03/03 02:38:56;;;;;;;15.95;8.02;;;;;;;2.98;52.29;97355.47;4913524;28;20167;-80
2022/03/03 02:41:23;;;;;;;14.73;8.20;;;;;;;2.96;52.25;97358.22;4912414;28;20205;-80
2022/03/03 02:43:49;;;;;;;16.67;8.93;;;;;;;3.03;51.94;97363.41;4930631;28;20114;-80
2022/03/03 02:46:14;;;;;;;17.77;8.98;;;;;;;3.00;52.23;97358.69;4947501;28;20196;-80
2022/03/03 02:48:40;;;;;;;22.58;10.52;;;;;;;2.94;51.69;97359.44;4904613;28;20225;-80
2022/03/03 02:51:06;;;;;;;15.95;8.77;;;;;;;2.94;52.32;97360.22;4914451;28;20287;-81
2022/03/03 02:53:32;;;;;;;18.77;8.93;;;;;;;2.93;52.48;97362.97;4896405;28;20269;-80
2022/03/03 02:55:57;;;;;;;18.60;10.07;;;;;;;2.83;53.10;97353.06;4914383;28;20573;-80
2022/03/03 02:58:23;;;;;;;22.35;10.48;;;;;;;2.61;52.94;97345.41;4898503;28;20475;-80
2022/03/03 03:00:48;;;;;;;15.68;8.93;;;;;;;2.52;52.89;97345.72;4914018;28;20699;-80
2022/03/03 03:03:14;;;;;;;16.63;9.18;;;;;;;2.43;53.44;97339.94;4896207;28;20676;-80
2022/03/03 03:05:40;;;;;;;19.63;9.18;;;;;;;2.41;54.34;97345.28;4915719;28;20276;-80
2022/03/03 03:08:06;;;;;;;19.67;9.70;;;;;;;2.42;54.18;97340.94;4944678;28;20285;-80
2022/03/03 03:10:31;;;;;;;18.50;9.85;;;;;;;2.38;54.41;97339.72;4929914;28;20329;-80
2022/03/03 03:12:57;;;;;;;21.23;9.60;;;;;;;2.42;54.33;97336.59;4921451;28;20174;-79
2022/03/03 03:15:23;;;;;;;24.05;10.00;;;;;;;2.48;54.21;97340.19;4913625;28;20368;-80
2022/03/03 03:17:49;;;;;;;17.08;9.02;;;;;;;2.45;53.79;97338.00;4912596;28;20257;-80
2022/03/03 03:20:14;;;;;;;16.23;9.02;;;;;;;2.42;54.33;97340.94;4930518;28;20246;-80
2022/03/03 03:22:40;;;;;;;20.35;9.25;;;;;;;2.43;54.24;97340.75;4911517;28;20171;-80
2022/03/03 03:25:11;;;;;;;22.27;10.05;;;;;;;2.35;53.98;97340.13;4914302;28;20182;-80
2022/03/03 03:27:38;;;;;;;16.00;8.50;;;;;;;2.45;54.00;97335.44;4914658;28;20223;-80
2022/03/03 03:30:05;;;;;;;16.80;8.95;;;;;;;2.41;54.37;97329.84;4914549;28;20656;-80
2022/03/03 03:32:30;;;;;;;16.30;8.43;;;;;;;2.44;54.55;97328.69;4897943;28;20213;-79
2022/03/03 03:34:57;;;;;;;17.13;8.98;;;;;;;2.43;54.69;97333.06;4905848;28;20205;-80
2022/03/03 03:37:22;;;;;;;18.00;9.15;;;;;;;2.38;53.91;97332.81;4914027;28;20244;-80
2022/03/03 03:39:48;;;;;;;19.25;9.73;;;;;;;2.34;53.78;97323.09;4913984;28;20295;-80
2022/03/03 03:42:13;;;;;;;17.30;8.70;;;;;;;2.36;54.17;97333.97;4947264;28;20224;-80
2022/03/03 03:44:39;;;;;;;19.77;9.82;;;;;;;2.31;54.87;97329.38;4929690;28;20268;-80
2022/03/03 03:47:06;;;;;;;23.23;10.40;;;;;;;2.31;54.77;97324.25;4929971;28;20658;-79
2022/03/03 03:49:31;;;;;;;37.78;18.05;;;;;;;2.31;55.11;97319.13;4911140;28;20228;-80
2022/03/03 03:51:57;;;;;;;44.67;19.08;;;;;;;2.30;54.81;97320.13;4930268;28;20412;-79
2022/03/03 03:54:22;;;;;;;27.40;12.35;;;;;;;2.30;55.37;97309.06;4910560;28;20251;-79
2022/03/03 03:56:47;;;;;;;27.70;11.52;;;;;;;2.30;55.30;97311.63;4930152;28;20213;-80
2022/03/03 03:59:13;;;;;;;22.50;11.35;;;;;;;2.31;54.93;97313.97;4913166;28;20187;-79
2022/03/03 04:01:38;;;;;;;20.67;9.80;;;;;;;2.28;55.31;97314.38;4943181;28;20231;-80
2022/03/03 04:04:04;;;;;;;28.60;12.95;;;;;;;2.30;54.72;97312.41;4913080;28;20213;-79
2022/03/03 04:06:29;;;;;;;27.73;13.18;;;;;;;2.24;54.52;97313.97;4910796;28;20278;-79
2022/03/03 04:08:54;;;;;;;26.40;11.77;;;;;;;2.25;55.06;97309.59;4895965;28;20263;-80
2022/03/03 04:11:20;;;;;;;26.05;12.25;;;;;;;2.25;54.83;97309.59;4910805;28;20171;-79
2022/03/03 04:13:45;;;;;;;20.38;10.05;;;;;;;2.22;54.78;97299.69;4927852;28;20279;-79
2022/03/03 04:16:11;;;;;;;24.75;12.02;;;;;;;2.19;54.33;97300.88;4946028;28;20342;-78
2022/03/03 04:18:37;;;;;;;29.17;13.45;;;;;;;2.14;54.76;97304.97;4910136;28;20688;-79
2022/03/03 04:21:04;;;;;;;33.50;13.15;;;;;;;2.10;54.95;97303.78;4928047;28;20288;-78
2022/03/03 04:23:29;;;;;;;28.88;13.77;;;;;;;2.11;55.23;97303.59;4895418;28;20348;-79
2022/03/03 04:25:54;;;;;;;23.90;12.88;;;;;;;2.11;55.02;97297.63;4913275;28;20213;-79
2022/03/03 04:28:20;;;;;;;29.45;13.07;;;;;;;2.07;55.71;97299.78;4910761;28;20205;-79
2022/03/03 04:30:45;;;;;;;26.98;12.07;;;;;;;2.06;55.54;97296.44;4923050;28;20162;-78
2022/03/03 04:33:10;;;;;;;25.40;12.43;;;;;;;2.19;54.69;97305.19;4921797;28;20193;-78
2022/03/03 04:35:36;;;;;;;26.52;13.38;;;;;;;2.15;54.04;97298.88;4913237;28;20170;-78
2022/03/03 04:38:01;;;;;;;22.50;10.88;;;;;;;1.98;54.61;97299.13;4912081;28;20686;-79
2022/03/03 04:40:27;;;;;;;25.38;11.55;;;;;;;1.93;54.53;97296.31;4921280;28;20201;-78
2022/03/03 04:42:52;;;;;;;20.25;10.48;;;;;;;1.92;54.52;97294.75;4902341;28;20375;-78
2022/03/03 04:45:18;;;;;;;19.77;9.23;;;;;;;1.96;54.91;97292.59;4908291;28;20726;-78
2022/03/03 04:47:44;;;;;;;17.02;8.65;;;;;;;1.89;55.02;97281.50;4894459;28;20207;-78
2022/03/03 04:50:09;;;;;;;16.10;7.97;;;;;;;1.89;55.47;97290.00;4930094;28;20280;-78
2022/03/03 04:52:35;;;;;;;16.77;8.95;;;;;;;1.92;55.76;97287.06;4928964;28;20245;-79
2022/03/03 04:55:02;;;;;;;17.20;9.05;;;;;;;1.79;56.17;97282.59;4908597;28;20367;-78
2022/03/03 04:57:27;;;;;;;16.38;8.30;;;;;;;1.85;56.15;97281.06;4909023;28;20376;-79
2022/03/03 04:59:53;;;;;;;19.55;9.27;;;;;;;1.84;56.00;97282.84;4945789;28;20294;-79
2022/03/03 05:02:18;;;;;;;23.63;10.38;;;;;;;1.90;56.20;97296.69;4911173;28;20275;-79
2022/03/03 05:04:43;;;;;;;20.45;10.32;;;;;;;1.88;56.59;97285.81;4908439;28;20296;-79
2022/03/03 05:07:09;;;;;;;22.40;11.15;;;;;;;1.86;56.40;97292.91;4911547;28;20288;-78
2022/03/03 05:09:34;;;;;;;24.50;10.32;;;;;;;1.82;56.08;97287.38;4918449;28;20218;-78
2022/03/03 05:11:59;;;;;;;20.70;10.23;;;;;;;1.83;56.59;97283.00;4946632;28;20189;-78
2022/03/03 05:14:26;;;;;;;19.27;10.15;;;;;;;1.81;56.29;97288.34;4912295;28;20158;-78
2022/03/03 05:16:51;;;;;;;20.52;9.75;;;;;;;1.78;56.71;97293.84;4928765;28;20659;-78
2022/03/03 05:19:17;;;;;;;18.52;9.77;;;;;;;1.75;56.57;97291.66;4907583;28;20189;-78
2022/03/03 05:21:42;;;;;;;18.83;9.55;;;;;;;1.75;56.70;97290.84;4928778;28;20264;-79
2022/03/03 05:24:07;;;;;;;22.63;9.75;;;;;;;1.67;56.29;97282.28;4925175;28;20188;-78
2022/03/03 05:26:33;;;;;;;22.00;9.52;;;;;;;1.71;57.14;97285.28;4929907;28;20212;-79
2022/03/03 05:29:14;;;;;;;21.88;10.43;;;;;;;1.66;56.41;97278.16;4900449;28;20201;-78
2022/03/03 05:31:39;;;;;;;25.38;12.50;;;;;;;1.67;56.33;97277.16;4912267;28;20281;-78
2022/03/03 05:34:05;;;;;;;23.48;11.13;;;;;;;1.58;56.65;97273.16;4906565;28;20196;-78
2022/03/03 05:36:30;;;;;;;24.77;11.98;;;;;;;1.61;56.74;97270.22;4913315;28;20353;-78
2022/03/03 05:38:57;;;;;;;23.23;12.07;;;;;;;1.62;56.10;97271.78;4928327;28;20268;-79
2022/03/03 05:41:22;;;;;;;22.02;10.88;;;;;;;1.69;56.19;97272.63;4913392;28;20214;-78
2022/03/03 05:43:48;;;;;;;17.08;9.20;;;;;;;1.57;56.36;97258.72;4912812;28;20309;-78
2022/03/03 05:46:15;;;;;;;18.83;9.63;;;;;;;1.68;56.01;97276.19;4927191;28;20260;-78
2022/03/03 05:48:41;;;;;;;17.50;9.57;;;;;;;1.67;55.87;97278.94;4912302;28;20275;-78
2022/03/03 05:51:06;;;;;;;16.42;9.02;;;;;;;1.52;55.74;97273.88;4928562;28;20170;-78
2022/03/03 05:53:32;;;;;;;16.38;8.75;;;;;;;1.43;56.49;97280.13;4915575;28;20266;-78
2022/03/03 05:56:00;;;;;;;20.42;8.98;;;;;;;1.30;57.12;97270.50;4928370;28;20303;-78
2022/03/03 05:58:44;;;;;;;19.42;9.50;;;;;;;1.16;57.29;97276.50;4913109;28;20580;-78
2022/03/03 06:01:11;;;;;;;22.35;10.60;;;;;;;1.17;58.24;97272.97;4912835;28;20589;-79
2022/03/03 06:03:37;;;;;;;23.25;10.18;;;;;;;1.13;58.43;97282.75;4912709;28;20306;-79
2022/03/03 06:06:14;;;;;;;24.85;11.75;;;;;;;1.00;57.89;97283.44;4927688;28;20202;-79
2022/03/03 06:08:41;;;;;;;24.30;12.27;;;;;;;1.13;57.03;97282.75;4927074;28;20232;-78
2022/03/03 06:11:12;;;;;;;22.50;11.25;;;;;;;1.03;57.21;97279.69;4903928;28;20636;-78
2022/03/03 06:14:07;;;;;;;24.50;12.63;;;;;;;0.95;57.13;97284.94;4908153;28;20311;-78
2022/03/03 06:16:34;;;;;;;22.25;10.75;;;;;;;1.09;57.25;97271.28;4884107;28;20287;-78
2022/03/03 06:19:00;;;;;;;20.00;9.75;;;;;;;1.13;57.81;97267.38;4908312;28;20307;-79
2022/03/03 06:21:25;;;;;;;21.55;10.25;;;;;;;1.15;58.35;97278.28;4926779;28;20746;-79
2022/03/03 06:23:51;;;;;;;19.90;10.30;;;;;;;1.12;58.74;97273.50;4931548;28;20193;-79
2022/03/03 06:26:18;;;;;;;24.52;11.60;;;;;;;1.16;58.43;97274.72;4922533;28;20223;-78
2022/03/03 06:28:44;;;;;;;22.23;10.93;;;;;;;1.25;57.89;97273.63;4943551;28;20694;-79
2022/03/03 06:31:10;;;;;;;21.67;10.48;;;;;;;1.39;57.69;97276.31;4911018;28;20262;-78
2022/03/03 06:33:36;;;;;;;19.63;10.02;;;;;;;1.47;57.43;97263.38;4929913;28;20722;-79
2022/03/03 06:36:02;;;;;;;17.15;8.93;;;;;;;1.52;57.11;97262.81;4937636;28;20201;-79
2022/03/03 06:38:28;;;;;;;18.92;9.90;;;;;;;1.57;57.03;97258.72;4915135;28;20647;-79
2022/03/03 06:40:55;;;;;;;19.23;9.65;;;;;;;1.59;56.84;97254.19;4913582;28;20217;-79
2022/03/03 06:43:20;;;;;;;18.38;10.02;;;;;;;1.70;56.76;97255.47;4911779;28;20163;-79
2022/03/03 06:45:46;;;;;;;18.25;9.48;;;;;;;1.79;56.49;97248.44;4937630;28;20201;-79
2022/03/03 06:48:13;;;;;;;20.30;10.15;;;;;;;1.85;55.60;97245.91;4930818;28;20572;-79
2022/03/03 06:50:40;;;;;;;17.17;9.63;;;;;;;1.82;55.07;97240.38;4913408;28;20217;-79
2022/03/03 06:53:09;;;;;;;17.63;9.20;;;;;;;1.92;54.22;97238.28;4905518;28;20285;-79
2022/03/03 06:55:35;;;;;;;18.35;8.95;;;;;;;1.97;53.96;97241.06;4933019;28;20116;-79
2022/03/03 06:58:01;;;;;;;16.55;8.88;;;;;;;1.92;54.57;97232.31;4895666;28;20268;-79
2022/03/03 07:00:32;;;;;;;15.00;7.80;;;;;;;2.03;54.06;97232.59;4929111;28;20659;-79
2022/03/03 07:03:01;;;;;;;16.15;8.18;;;;;;;2.07;53.96;97230.44;4909934;28;20694;-79
2022/03/03 07:05:28;;;;;;;13.75;8.10;;;;;;;2.14;54.28;97233.06;4888935;28;20229;-79
2022/03/03 07:07:54;;;;;;;16.52;7.38;;;;;;;2.11;53.96;97226.53;4925683;28;20151;-80
2022/03/03 07:10:23;;;;;;;17.15;9.10;;;;;;;2.08;54.74;97221.00;4909257;28;20200;-79
2022/03/03 07:12:52;;;;;;;14.75;7.82;;;;;;;2.02;54.94;97225.91;4930940;28;20197;-80
2022/03/03 07:15:17;;;;;;;13.93;7.88;;;;;;;2.12;55.82;97233.25;4910083;28;20648;-80
2022/03/03 07:17:51;;;;;;;17.33;8.75;;;;;;;2.08;55.10;97236.41;4911946;28;20252;-80
2022/03/03 07:20:18;;;;;;;18.45;11.35;;;;;;;2.20;55.39;97230.53;4909748;28;20217;-80
2022/03/03 07:22:58;;;;;;;38.88;20.88;;;;;;;2.06;56.38;97245.06;4914254;28;20248;-81
2022/03/03 07:25:31;;;;;;;26.00;14.77;;;;;;;1.66;57.37;97260.19;4914636;28;20605;-82
2022/03/03 07:27:58;;;;;;;17.50;10.25;;;;;;;1.11;58.73;97256.50;4897432;28;20239;-81
2022/03/03 07:30:24;;;;;;;19.45;10.40;;;;;;;1.72;57.44;97245.81;4930433;28;20609;-80
2022/03/03 07:32:55;;;;;;;18.48;9.40;;;;;;;2.02;56.46;97256.72;4913847;28;20201;-80
2022/03/03 07:35:23;;;;;;;19.90;10.27;;;;;;;2.06;56.69;97260.47;4914451;28;20220;-81
2022/03/03 07:37:56;;;;;;;22.38;13.05;;;;;;;2.20;55.97;97265.72;4935399;28;20620;-81
2022/03/03 07:40:24;;;;;;;19.48;9.73;;;;;;;2.44;55.91;97259.31;4930259;28;20309;-81
2022/03/03 07:42:50;;;;;;;18.92;9.77;;;;;;;2.66;55.12;97260.00;4930091;28;20206;-81
2022/03/03 07:45:16;;;;;;;18.85;10.55;;;;;;;2.75;55.35;97261.44;4909985;28;20289;-82
2022/03/03 07:47:41;;;;;;;23.27;12.25;;;;;;;2.85;55.09;97260.28;4930539;28;20292;-81
2022/03/03 07:50:08;;;;;;;20.45;10.75;;;;;;;3.01;54.42;97262.50;4916862;28;20205;-81
2022/03/03 07:52:34;;;;;;;21.42;12.05;;;;;;;3.08;54.39;97262.53;4919894;28;20161;-82
2022/03/03 07:55:00;;;;;;;18.10;11.00;;;;;;;3.23;53.56;97262.38;4916675;28;20261;-82
2022/03/03 07:57:35;;;;;;;20.08;10.55;;;;;;;3.33;53.37;97260.22;4912303;28;20197;-81
2022/03/03 08:00:03;;;;;;;;;;;;;;;3.35;53.47;97253.88;4924831;28;20237;-82
2022/03/03 08:02:30;;;;;;;21.48;10.05;;;;;;;3.81;52.57;97254.09;4903962;28;20107;-82
2022/03/03 08:04:57;;;;;;;19.55;10.63;;;;;;;3.95;51.73;97260.81;4897398;28;20279;-82
2022/03/03 08:07:23;;;;;;;18.65;9.63;;;;;;;4.37;50.74;97245.09;4914753;28;20185;-82
2022/03/03 08:09:49;;;;;;;19.05;10.48;;;;;;;4.44;50.86;97256.19;4927232;28;20295;-82
2022/03/03 08:12:16;;;;;;;21.80;10.38;;;;;;;4.25;50.92;97257.81;4904768;28;20267;-83
2022/03/03 08:14:41;;;;;;;18.58;10.35;;;;;;;4.45;50.66;97245.66;4920717;28;20690;-83
2022/03/03 08:17:07;;;;;;;18.48;10.23;;;;;;;4.66;50.10;97239.47;4912511;28;20291;-82
2022/03/03 08:19:33;;;;;;;18.05;10.32;;;;;;;4.79;49.69;97253.28;4895197;28;20192;-83
2022/03/03 08:21:58;;;;;;;17.15;9.90;;;;;;;5.03;49.74;97251.78;4900140;28;20211;-83
2022/03/03 08:24:25;;;;;;;20.67;12.68;;;;;;;5.21;49.22;97251.91;4936487;28;20452;-83
2022/03/03 08:26:54;;;;;;;18.08;9.63;;;;;;;5.47;48.54;97251.91;4913387;28;20646;-84
2022/03/03 08:29:19;;;;;;;17.83;10.40;;;;;;;5.59;48.35;97261.38;4889002;28;20344;-84
2022/03/03 08:31:49;;;;;;;19.17;10.38;;;;;;;5.61;47.76;97261.16;4894534;28;20252;-84
2022/03/03 08:34:16;;;;;;;22.58;10.48;;;;;;;5.82;47.55;97262.59;4894640;28;20306;-86
2022/03/03 08:36:56;;;;;;;18.75;9.57;;;;;;;5.70;47.82;97270.22;4890199;28;20186;-85
2022/03/03 08:39:27;;;;;;;21.27;11.43;;;;;;;5.90;47.57;97266.72;4897974;28;20187;-86
2022/03/03 08:41:58;;;;;;;18.88;10.85;;;;;;;6.03;46.71;97265.81;4927469;28;20162;-86
2022/03/03 08:44:28;;;;;;;19.35;10.52;;;;;;;6.55;46.28;97268.91;4909357;28;20225;-87
2022/03/03 08:46:55;;;;;;;20.55;9.80;;;;;;;6.70;45.43;97271.09;4913982;28;20339;-87
2022/03/03 08:49:20;;;;;;;19.55;10.68;;;;;;;6.84;45.16;97264.78;4902838;28;20275;-88
2022/03/03 08:51:46;;;;;;;18.10;10.52;;;;;;;6.77;44.54;97248.56;4895197;28;20819;-88
2022/03/03 08:54:13;;;;;;;16.92;10.85;;;;;;;6.96;44.53;97264.84;4905341;28;20193;-87
2022/03/03 08:56:39;;;;;;;17.48;11.00;;;;;;;7.23;44.21;97270.47;4913479;28;20111;-88
2022/03/03 08:59:05;;;;;;;16.95;10.18;;;;;;;7.45;43.87;97263.00;4895319;28;20193;-86
2022/03/03 09:01:30;;;;;;;18.23;10.35;;;;;;;7.54;44.10;97273.03;4903487;28;20234;-86
2022/03/03 09:03:58;;;;;;;19.38;11.00;;;;;;;7.18;43.62;97267.75;4922201;28;20353;-82
2022/03/03 09:06:25;;;;;;;23.13;9.70;;;;;;;7.71;44.14;97281.75;4928078;28;20714;-83
2022/03/03 09:08:50;;;;;;;18.73;11.02;;;;;;;7.64;42.95;97283.63;4905486;28;20171;-85
2022/03/03 09:11:18;;;;;;;17.58;10.30;;;;;;;7.78;43.16;97282.44;4912227;28;20690;-84
2022/03/03 09:13:43;;;;;;;16.13;10.80;;;;;;;7.65;43.00;97270.47;4892913;28;20280;-83
2022/03/03 09:16:09;;;;;;;17.60;10.57;;;;;;;7.83;42.23;97279.97;4895454;28;20201;-84
2022/03/03 09:18:35;;;;;;;19.48;11.30;;;;;;;7.57;42.47;97272.59;4885165;28;20547;-84
2022/03/03 09:21:00;;;;;;;18.58;11.73;;;;;;;7.66;42.35;97281.63;4935463;28;20717;-83
2022/03/03 09:23:26;;;;;;;19.92;11.43;;;;;;;7.67;42.61;97280.59;4917273;28;20276;-83
2022/03/03 09:25:51;;;;;;;20.88;11.25;;;;;;;8.14;42.27;97262.50;4906202;28;20287;-84
2022/03/03 09:28:17;;;;;;;20.65;10.38;;;;;;;8.43;41.96;97265.19;4906406;28;20273;-80
2022/03/03 09:30:42;;;;;;;19.95;10.45;;;;;;;8.37;41.44;97255.72;4913193;28;20357;-82
2022/03/03 09:33:08;;;;;;;18.48;10.90;;;;;;;8.34;41.91;97262.13;4926031;28;20196;-85
2022/03/03 09:35:33;;;;;;;18.30;10.82;;;;;;;8.44;40.93;97252.00;4929116;28;20208;-83
2022/03/03 09:37:59;;;;;;;18.75;10.38;;;;;;;8.56;41.36;97261.59;4925499;28;20224;-84
2022/03/03 09:40:25;;;;;;;18.77;10.63;;;;;;;8.72;40.97;97253.09;4912436;28;20261;-85
2022/03/03 09:43:05;;;;;;;17.55;10.23;;;;;;;8.77;40.46;97262.75;4896441;28;20287;-81
2022/03/03 09:45:32;;;;;;;17.88;10.55;;;;;;;8.85;40.52;97264.22;4927784;28;20162;-83
2022/03/03 09:47:59;;;;;;;20.05;10.80;;;;;;;9.17;39.85;97262.75;4933063;28;20170;-84
2022/03/03 09:50:25;;;;;;;17.02;9.98;;;;;;;8.98;40.29;97258.78;4928087;28;20205;-84
2022/03/03 09:52:51;;;;;;;17.50;10.05;;;;;;;9.09;40.05;97272.72;4916375;28;20243;-84
2022/03/03 09:55:17;;;;;;;16.50;10.57;;;;;;;9.16;39.52;97274.16;4924991;28;20277;-84
2022/03/03 09:57:42;;;;;;;18.13;10.95;;;;;;;9.63;39.43;97269.72;4915087;28;20280;-84
2022/03/03 10:00:12;;;;;;;20.02;10.85;;;;;;;9.62;38.54;97257.78;4938264;28;20245;-88
2022/03/03 10:02:56;;;;;;;17.83;10.73;;;;;;;9.45;39.02;97266.34;4897508;28;20285;-83
2022/03/03 10:05:37;;;;;;;16.42;10.23;;;;;;;9.54;38.90;97264.94;4934653;28;20265;-85
2022/03/03 10:08:13;;;;;;;18.30;10.70;;;;;;;9.84;38.83;97269.03;4915451;28;20110;-86
2022/03/03 10:10:42;;;;;;;18.48;10.90;;;;;;;10.15;38.20;97269.50;4932331;28;20256;-83
2022/03/03 10:13:09;;;;;;;15.25;10.27;;;;;;;10.10;38.66;97264.22;4899511;28;20211;-86
2022/03/03 10:15:35;;;;;;;18.42;10.18;;;;;;;10.40;37.96;97270.88;4921885;28;20317;-84
2022/03/03 10:18:12;;;;;;;19.45;11.02;;;;;;;10.17;37.81;97269.25;4912320;28;20624;-79
2022/03/03 10:20:52;;;;;;;18.42;10.60;;;;;;;10.28;37.79;97266.56;4914693;28;20624;-85
2022/03/03 10:23:24;;;;;;;15.27;9.80;;;;;;;10.34;37.24;97267.44;4921876;28;20207;-84
2022/03/03 10:25:51;;;;;;;18.40;11.68;;;;;;;10.72;36.75;97263.22;4930951;28;20182;-84
2022/03/03 10:28:19;;;;;;;17.67;10.32;;;;;;;10.51;37.38;97267.41;4905832;28;20185;-83
2022/03/03 10:30:55;;;;;;;16.73;11.02;;;;;;;10.46;37.15;97269.94;4953891;28;20308;-85
2022/03/03 10:33:25;;;;;;;16.17;10.48;;;;;;;10.87;36.74;97265.22;4916052;28;20488;-83
2022/03/03 10:36:02;;;;;;;16.20;11.00;;;;;;;11.05;36.80;97257.09;4922067;28;20420;-85
2022/03/03 10:38:28;;;;;;;17.42;10.63;;;;;;;11.37;36.75;97255.56;4931384;28;20209;-85
2022/03/03 10:40:53;;;;;;;17.60;11.02;;;;;;;11.57;35.46;97260.19;4899216;28;20320;-85
2022/03/03 10:43:19;;;;;;;19.52;12.20;;;;;;;11.56;35.78;97258.59;4898664;28;20292;-85
2022/03/03 10:45:59;;;;;;;17.38;11.00;;;;;;;11.23;35.48;97260.38;4932883;28;20209;-82
2022/03/03 10:48:26;;;;;;;16.58;11.10;;;;;;;11.84;34.75;97257.53;4896161;28;20209;-84
2022/03/03 10:50:54;;;;;;;16.75;11.32;;;;;;;11.85;34.65;97250.47;4928735;28;20356;-83
2022/03/03 10:53:22;;;;;;;17.55;11.40;;;;;;;12.01;34.29;97252.16;4949401;28;20359;-84
2022/03/03 10:56:07;;;;;;;18.80;11.43;;;;;;;12.06;34.41;97241.75;4920764;28;20184;-85
2022/03/03 10:58:56;;;;;;;18.27;11.45;;;;;;;12.07;34.07;97251.16;4931180;28;20260;-85
2022/03/03 11:01:24;;;;;;;18.85;12.38;;;;;;;12.15;33.72;97248.09;4942142;28;20109;-85
2022/03/03 11:03:50;;;;;;;17.13;11.77;;;;;;;12.06;34.00;97239.13;4919770;28;20188;-86
2022/03/03 11:06:26;;;;;;;19.77;12.00;;;;;;;12.34;33.64;97232.78;4921318;28;20325;-85
2022/03/03 11:08:53;;;;;;;18.50;12.05;;;;;;;12.40;33.23;97233.59;4892583;28;20216;-85
2022/03/03 11:11:20;;;;;;;16.73;11.23;;;;;;;12.65;32.28;97229.53;4914675;28;20643;-86
2022/03/03 11:13:50;;;;;;;17.25;11.02;;;;;;;13.06;32.49;97227.03;4899054;28;20178;-85
2022/03/03 11:16:16;;;;;;;19.27;12.48;;;;;;;13.06;32.29;97227.81;4909555;28;20648;-83
2022/03/03 11:18:42;;;;;;;16.55;11.05;;;;;;;13.16;31.45;97226.25;4898681;28;20168;-86
2022/03/03 11:21:08;;;;;;;18.10;11.60;;;;;;;13.38;31.63;97223.41;4936417;28;20283;-85
2022/03/03 11:23:42;;;;;;;16.85;11.02;;;;;;;13.32;31.13;97229.72;4909201;28;20347;-84
2022/03/03 11:26:33;;;;;;;18.73;11.40;;;;;;;13.64;32.39;97222.38;4901877;28;20204;-85